sensor_id;sensor_type;location;lat;lon;timestamp;P1;durP1;ratioP1;P2;durP2;ratioP2
54143;SDS011;40050;47.324;18.792;2023-07-20T00:00:37;10.95;;;3.69;;
54143;SDS011;40050;47.324;18.792;2023-07-20T00:02:34;7.56;;;3.09;;
54143;SDS011;40050;47.324;18.792;2023-07-20T00:04:35;7.27;;;2.99;;
54143;SDS011;40050;47.324;18.792;2023-07-20T00:06:36;8.72;;;2.89;;
54143;SDS011;40050;47.324;18.792;2023-07-20T00:08:37;8.23;;;3.09;;
54143;SDS011;40050;47.324;18.792;2023-07-20T00:10:39;8.71;;;3.19;;
54143;SDS011;40050;47.324;18.792;2023-07-20T00:12:39;8.13;;;2.99;;
54143;SDS011;40050;47.324;18.792;2023-07-20T00:14:40;7.07;;;3.09;;
54143;SDS011;40050;47.324;18.792;2023-07-20T00:16:41;7.55;;;3.39;;
54143;SDS011;40050;47.324;18.792;2023-07-20T00:18:42;11.13;;;3.09;;
54143;SDS011;40050;47.324;18.792;2023-07-20T00:20:43;5.81;;;3.19;;
54143;SDS011;40050;47.324;18.792;2023-07-20T00:22:44;6.09;;;2.99;;
54143;SDS011;40050;47.324;18.792;2023-07-20T00:24:45;8.70;;;3.29;;
54143;SDS011;40050;47.324;18.792;2023-07-20T00:26:46;6.00;;;2.89;;
54143;SDS011;40050;47.324;18.792;2023-07-20T00:28:48;8.51;;;3.39;;
54143;SDS011;40050;47.324;18.792;2023-07-20T00:30:47;5.52;;;2.79;;
54143;SDS011;40050;47.324;18.792;2023-07-20T00:32:48;10.26;;;3.29;;
54143;SDS011;40050;47.324;18.792;2023-07-20T00:34:49;5.71;;;3.19;;
54143;SDS011;40050;47.324;18.792;2023-07-20T00:36:50;7.93;;;3.38;;
54143;SDS011;40050;47.324;18.792;2023-07-20T00:38:51;7.64;;;3.38;;
54143;SDS011;40050;47.324;18.792;2023-07-20T00:40:52;6.28;;;3.09;;
54143;SDS011;40050;47.324;18.792;2023-07-20T00:42:53;8.88;;;3.18;;
54143;SDS011;40050;47.324;18.792;2023-07-20T00:44:54;8.02;;;3.28;;
54143;SDS011;40050;47.324;18.792;2023-07-20T00:46:55;7.62;;;3.28;;
54143;SDS011;40050;47.324;18.792;2023-07-20T00:48:56;7.33;;;3.58;;
54143;SDS011;40050;47.324;18.792;2023-07-20T00:50:59;5.69;;;3.28;;
54143;SDS011;40050;47.324;18.792;2023-07-20T00:52:59;6.17;;;3.18;;
54143;SDS011;40050;47.324;18.792;2023-07-20T00:55:01;7.22;;;3.48;;
54143;SDS011;40050;47.324;18.792;2023-07-20T00:57:02;5.68;;;2.88;;
54143;SDS011;40050;47.324;18.792;2023-07-20T00:59:02;7.60;;;3.68;;
54143;SDS011;40050;47.324;18.792;2023-07-20T01:01:03;7.31;;;3.78;;
54143;SDS011;40050;47.324;18.792;2023-07-20T01:03:04;7.50;;;3.68;;
54143;SDS011;40050;47.324;18.792;2023-07-20T01:05:06;11.34;;;3.28;;
54143;SDS011;40050;47.324;18.792;2023-07-20T01:07:22;6.72;;;3.28;;
54143;SDS011;40050;47.324;18.792;2023-07-20T01:09:42;5.66;;;3.18;;
54143;SDS011;40050;47.324;18.792;2023-07-20T01:13:53;5.46;;;3.08;;
54143;SDS011;40050;47.324;18.792;2023-07-20T01:15:56;7.28;;;3.58;;
54143;SDS011;40050;47.324;18.792;2023-07-20T01:17:54;4.60;;;3.08;;
54143;SDS011;40050;47.324;18.792;2023-07-20T01:19:56;7.75;;;3.28;;
54143;SDS011;40050;47.324;18.792;2023-07-20T01:22:13;7.47;;;3.18;;
54143;SDS011;40050;47.324;18.792;2023-07-20T01:29:11;9.20;;;3.48;;
54143;SDS011;40050;47.324;18.792;2023-07-20T01:31:25;5.95;;;3.18;;
54143;SDS011;40050;47.324;18.792;2023-07-20T01:33:25;7.20;;;3.18;;
54143;SDS011;40050;47.324;18.792;2023-07-20T01:35:28;6.71;;;3.08;;
54143;SDS011;40050;47.324;18.792;2023-07-20T01:37:28;5.75;;;3.08;;
54143;SDS011;40050;47.324;18.792;2023-07-20T01:39:30;6.90;;;3.18;;
54143;SDS011;40050;47.324;18.792;2023-07-20T01:41:31;6.32;;;3.18;;
54143;SDS011;40050;47.324;18.792;2023-07-20T01:43:33;5.74;;;3.08;;
54143;SDS011;40050;47.324;18.792;2023-07-20T01:45:34;7.08;;;3.38;;
54143;SDS011;40050;47.324;18.792;2023-07-20T01:47:35;6.50;;;3.08;;
54143;SDS011;40050;47.324;18.792;2023-07-20T01:49:36;5.64;;;3.38;;
54143;SDS011;40050;47.324;18.792;2023-07-20T01:51:37;4.21;;;2.78;;
54143;SDS011;40050;47.324;18.792;2023-07-20T01:53:38;6.22;;;3.08;;
54143;SDS011;40050;47.324;18.792;2023-07-20T01:55:39;4.59;;;2.98;;
54143;SDS011;40050;47.324;18.792;2023-07-20T01:57:40;8.22;;;3.18;;
54143;SDS011;40050;47.324;18.792;2023-07-20T01:59:41;7.75;;;3.48;;
54143;SDS011;40050;47.324;18.792;2023-07-20T02:01:42;5.45;;;3.08;;
54143;SDS011;40050;47.324;18.792;2023-07-20T02:03:43;7.94;;;3.28;;
54143;SDS011;40050;47.324;18.792;2023-07-20T02:05:44;7.75;;;3.48;;
54143;SDS011;40050;47.324;18.792;2023-07-20T02:07:44;7.56;;;3.28;;
54143;SDS011;40050;47.324;18.792;2023-07-20T02:09:45;6.22;;;3.28;;
54143;SDS011;40050;47.324;18.792;2023-07-20T02:11:46;7.75;;;3.38;;
54143;SDS011;40050;47.324;18.792;2023-07-20T02:13:47;7.18;;;3.58;;
54143;SDS011;40050;47.324;18.792;2023-07-20T02:15:48;7.56;;;3.38;;
54143;SDS011;40050;47.324;18.792;2023-07-20T02:17:49;4.98;;;2.78;;
54143;SDS011;40050;47.324;18.792;2023-07-20T02:19:52;6.89;;;3.38;;
54143;SDS011;40050;47.324;18.792;2023-07-20T02:21:51;5.17;;;2.78;;
54143;SDS011;40050;47.324;18.792;2023-07-20T02:23:52;10.33;;;3.48;;
54143;SDS011;40050;47.324;18.792;2023-07-20T02:25:53;5.93;;;3.28;;
54143;SDS011;40050;47.324;18.792;2023-07-20T02:27:55;6.59;;;3.38;;
54143;SDS011;40050;47.324;18.792;2023-07-20T02:29:55;5.93;;;2.88;;
54143;SDS011;40050;47.324;18.792;2023-07-20T02:31:55;8.41;;;3.28;;
54143;SDS011;40050;47.324;18.792;2023-07-20T02:33:56;5.93;;;3.38;;
54143;SDS011;40050;47.324;18.792;2023-07-20T02:35:57;8.23;;;3.38;;
54143;SDS011;40050;47.324;18.792;2023-07-20T02:37:58;6.03;;;3.08;;
54143;SDS011;40050;47.324;18.792;2023-07-20T02:39:59;9.86;;;3.28;;
54143;SDS011;40050;47.324;18.792;2023-07-20T02:42:01;6.89;;;3.38;;
54143;SDS011;40050;47.324;18.792;2023-07-20T02:44:02;5.55;;;3.18;;
54143;SDS011;40050;47.324;18.792;2023-07-20T02:46:03;5.84;;;3.28;;
54143;SDS011;40050;47.324;18.792;2023-07-20T02:48:04;6.31;;;3.38;;
54143;SDS011;40050;47.324;18.792;2023-07-20T02:50:06;6.40;;;3.28;;
54143;SDS011;40050;47.324;18.792;2023-07-20T02:52:06;6.11;;;3.18;;
54143;SDS011;40050;47.324;18.792;2023-07-20T02:54:07;6.78;;;2.98;;
54143;SDS011;40050;47.324;18.792;2023-07-20T02:56:07;6.40;;;2.98;;
54143;SDS011;40050;47.324;18.792;2023-07-20T02:58:08;8.30;;;3.28;;
54143;SDS011;40050;47.324;18.792;2023-07-20T03:00:09;8.78;;;3.37;;
54143;SDS011;40050;47.324;18.792;2023-07-20T03:02:10;8.11;;;3.57;;
54143;SDS011;40050;47.324;18.792;2023-07-20T03:04:11;7.92;;;3.18;;
54143;SDS011;40050;47.324;18.792;2023-07-20T03:06:15;7.16;;;3.67;;
54143;SDS011;40050;47.324;18.792;2023-07-20T03:08:13;8.39;;;3.47;;
54143;SDS011;40050;47.324;18.792;2023-07-20T03:10:14;7.91;;;3.27;;
54143;SDS011;40050;47.324;18.792;2023-07-20T03:12:15;7.61;;;3.47;;
54143;SDS011;40050;47.324;18.792;2023-07-20T03:14:16;5.42;;;3.07;;
54143;SDS011;40050;47.324;18.792;2023-07-20T03:16:17;6.37;;;3.57;;
54143;SDS011;40050;47.324;18.792;2023-07-20T03:18:18;6.08;;;2.97;;
54143;SDS011;40050;47.324;18.792;2023-07-20T03:20:19;4.85;;;3.07;;
54143;SDS011;40050;47.324;18.792;2023-07-20T03:22:19;7.80;;;3.07;;
54143;SDS011;40050;47.324;18.792;2023-07-20T03:24:20;4.47;;;3.17;;
54143;SDS011;40050;47.324;18.792;2023-07-20T03:26:21;5.23;;;3.07;;
54143;SDS011;40050;47.324;18.792;2023-07-20T03:28:22;6.47;;;3.27;;
54143;SDS011;40050;47.324;18.792;2023-07-20T03:30:23;5.23;;;3.47;;
54143;SDS011;40050;47.324;18.792;2023-07-20T03:32:24;10.07;;;3.57;;
54143;SDS011;40050;47.324;18.792;2023-07-20T03:34:25;5.89;;;3.47;;
54143;SDS011;40050;47.324;18.792;2023-07-20T03:36:26;6.28;;;2.98;;
54143;SDS011;40050;47.324;18.792;2023-07-20T03:38:27;5.62;;;3.08;;
54143;SDS011;40050;47.324;18.792;2023-07-20T03:40:28;6.29;;;3.08;;
54143;SDS011;40050;47.324;18.792;2023-07-20T03:42:29;7.35;;;3.18;;
54143;SDS011;40050;47.324;18.792;2023-07-20T03:44:30;4.87;;;2.98;;
54143;SDS011;40050;47.324;18.792;2023-07-20T03:46:31;5.44;;;3.08;;
54143;SDS011;40050;47.324;18.792;2023-07-20T03:48:32;6.69;;;3.18;;
54143;SDS011;40050;47.324;18.792;2023-07-20T03:50:32;5.83;;;3.38;;
54143;SDS011;40050;47.324;18.792;2023-07-20T03:52:33;6.21;;;3.18;;
54143;SDS011;40050;47.324;18.792;2023-07-20T03:54:34;5.07;;;2.98;;
54143;SDS011;40050;47.324;18.792;2023-07-20T03:56:35;6.60;;;2.78;;
54143;SDS011;40050;47.324;18.792;2023-07-20T03:58:37;4.88;;;2.88;;
54143;SDS011;40050;47.324;18.792;2023-07-20T04:00:38;7.37;;;2.98;;
54143;SDS011;40050;47.324;18.792;2023-07-20T04:02:39;3.64;;;2.88;;
54143;SDS011;40050;47.324;18.792;2023-07-20T04:04:40;4.80;;;3.08;;
54143;SDS011;40050;47.324;18.792;2023-07-20T04:06:41;7.59;;;3.08;;
54143;SDS011;40050;47.324;18.792;2023-07-20T04:08:42;5.86;;;2.88;;
54143;SDS011;40050;47.324;18.792;2023-07-20T04:10:43;8.77;;;3.18;;
54143;SDS011;40050;47.324;18.792;2023-07-20T04:12:44;5.69;;;3.08;;
54143;SDS011;40050;47.324;18.792;2023-07-20T04:14:45;5.31;;;2.89;;
54143;SDS011;40050;47.324;18.792;2023-07-20T04:16:46;7.44;;;2.99;;
54143;SDS011;40050;47.324;18.792;2023-07-20T04:18:46;5.33;;;2.79;;
54143;SDS011;40050;47.324;18.792;2023-07-20T04:20:47;5.62;;;3.09;;
54143;SDS011;40050;47.324;18.792;2023-07-20T04:22:48;6.30;;;2.89;;
54143;SDS011;40050;47.324;18.792;2023-07-20T04:24:49;5.81;;;2.99;;
54143;SDS011;40050;47.324;18.792;2023-07-20T04:26:50;7.17;;;2.89;;
54143;SDS011;40050;47.324;18.792;2023-07-20T04:28:51;5.72;;;3.19;;
54143;SDS011;40050;47.324;18.792;2023-07-20T04:30:52;4.94;;;2.89;;
54143;SDS011;40050;47.324;18.792;2023-07-20T04:32:53;8.71;;;2.79;;
54143;SDS011;40050;47.324;18.792;2023-07-20T04:34:54;7.75;;;3.29;;
54143;SDS011;40050;47.324;18.792;2023-07-20T04:36:55;6.20;;;2.99;;
54143;SDS011;40050;47.324;18.792;2023-07-20T04:38:55;5.81;;;3.29;;
54143;SDS011;40050;47.324;18.792;2023-07-20T04:40:56;6.78;;;3.29;;
54143;SDS011;40050;47.324;18.792;2023-07-20T04:42:57;5.33;;;2.99;;
54143;SDS011;40050;47.324;18.792;2023-07-20T04:44:58;9.10;;;2.99;;
54143;SDS011;40050;47.324;18.792;2023-07-20T04:46:59;8.33;;;3.19;;
54143;SDS011;40050;47.324;18.792;2023-07-20T04:49:00;7.07;;;3.39;;
54143;SDS011;40050;47.324;18.792;2023-07-20T04:51:01;8.05;;;3.29;;
54143;SDS011;40050;47.324;18.792;2023-07-20T04:53:02;4.46;;;2.99;;
54143;SDS011;40050;47.324;18.792;2023-07-20T04:55:03;5.73;;;3.09;;
54143;SDS011;40050;47.324;18.792;2023-07-20T04:57:05;9.80;;;3.29;;
54143;SDS011;40050;47.324;18.792;2023-07-20T04:59:04;6.80;;;3.39;;
54143;SDS011;40050;47.324;18.792;2023-07-20T05:01:06;7.09;;;2.89;;
54143;SDS011;40050;47.324;18.792;2023-07-20T05:03:07;6.21;;;3.09;;
54143;SDS011;40050;47.324;18.792;2023-07-20T05:05:08;6.89;;;3.19;;
54143;SDS011;40050;47.324;18.792;2023-07-20T05:07:09;5.82;;;3.09;;
54143;SDS011;40050;47.324;18.792;2023-07-20T05:09:10;6.51;;;3.29;;
54143;SDS011;40050;47.324;18.792;2023-07-20T05:11:11;7.39;;;3.29;;
54143;SDS011;40050;47.324;18.792;2023-07-20T05:13:11;7.58;;;2.99;;
54143;SDS011;40050;47.324;18.792;2023-07-20T05:15:12;7.19;;;2.89;;
54143;SDS011;40050;47.324;18.792;2023-07-20T05:17:13;7.09;;;2.99;;
54143;SDS011;40050;47.324;18.792;2023-07-20T05:19:14;6.03;;;2.99;;
54143;SDS011;40050;47.324;18.792;2023-07-20T05:21:16;5.25;;;2.99;;
54143;SDS011;40050;47.324;18.792;2023-07-20T05:23:17;7.39;;;3.39;;
54143;SDS011;40050;47.324;18.792;2023-07-20T05:25:18;7.87;;;2.99;;
54143;SDS011;40050;47.324;18.792;2023-07-20T05:27:19;7.39;;;3.29;;
54143;SDS011;40050;47.324;18.792;2023-07-20T05:29:20;5.37;;;3.19;;
54143;SDS011;40050;47.324;18.792;2023-07-20T05:31:21;5.47;;;2.99;;
54143;SDS011;40050;47.324;18.792;2023-07-20T05:33:22;6.45;;;2.89;;
54143;SDS011;40050;47.324;18.792;2023-07-20T05:35:23;6.84;;;3.19;;
54143;SDS011;40050;47.324;18.792;2023-07-20T05:37:24;8.41;;;2.99;;
54143;SDS011;40050;47.324;18.792;2023-07-20T05:39:25;4.11;;;2.89;;
54143;SDS011;40050;47.324;18.792;2023-07-20T05:41:30;5.39;;;2.99;;
54143;SDS011;40050;47.324;18.792;2023-07-20T05:43:31;7.74;;;3.09;;
54143;SDS011;40050;47.324;18.792;2023-07-20T05:45:32;6.37;;;2.99;;
54143;SDS011;40050;47.324;18.792;2023-07-20T05:47:33;5.68;;;3.49;;
54143;SDS011;40050;47.324;18.792;2023-07-20T05:49:34;6.57;;;3.49;;
54143;SDS011;40050;47.324;18.792;2023-07-20T05:51:34;5.01;;;3.09;;
54143;SDS011;40050;47.324;18.792;2023-07-20T05:53:35;6.59;;;3.39;;
54143;SDS011;40050;47.324;18.792;2023-07-20T05:55:37;6.10;;;2.80;;
54143;SDS011;40050;47.324;18.792;2023-07-20T05:57:38;5.23;;;3.00;;
54143;SDS011;40050;47.324;18.792;2023-07-20T05:59:39;6.23;;;3.00;;
54143;SDS011;40050;47.324;18.792;2023-07-20T06:01:40;4.85;;;3.00;;
54143;SDS011;40050;47.324;18.792;2023-07-20T06:03:41;7.23;;;3.10;;
54143;SDS011;40050;47.324;18.792;2023-07-20T06:05:42;6.84;;;3.00;;
54143;SDS011;40050;47.324;18.792;2023-07-20T06:07:43;6.94;;;3.00;;
54143;SDS011;40050;47.324;18.792;2023-07-20T06:09:44;5.06;;;2.70;;
54143;SDS011;40050;47.324;18.792;2023-07-20T06:11:45;8.83;;;3.00;;
54143;SDS011;40050;47.324;18.792;2023-07-20T06:13:46;4.07;;;2.80;;
54143;SDS011;40050;47.324;18.792;2023-07-20T06:15:57;4.67;;;2.80;;
54143;SDS011;40050;47.324;18.792;2023-07-20T06:17:58;4.08;;;2.50;;
54143;SDS011;40050;47.324;18.792;2023-07-20T06:19:58;5.97;;;2.70;;
54143;SDS011;40050;47.324;18.792;2023-07-20T06:21:59;6.26;;;3.10;;
54143;SDS011;40050;47.324;18.792;2023-07-20T06:24:00;5.37;;;2.80;;
54143;SDS011;40050;47.324;18.792;2023-07-20T06:26:01;6.06;;;3.00;;
54143;SDS011;40050;47.324;18.792;2023-07-20T06:28:02;5.76;;;3.00;;
54143;SDS011;40050;47.324;18.792;2023-07-20T06:30:03;4.37;;;2.80;;
54143;SDS011;40050;47.324;18.792;2023-07-20T06:32:05;5.37;;;2.50;;
54143;SDS011;40050;47.324;18.792;2023-07-20T06:34:05;4.47;;;2.70;;
54143;SDS011;40050;47.324;18.792;2023-07-20T06:36:06;4.97;;;2.10;;
54143;SDS011;40050;47.324;18.792;2023-07-20T06:38:07;5.07;;;2.60;;
54143;SDS011;40050;47.324;18.792;2023-07-20T06:40:08;8.65;;;2.80;;
54143;SDS011;40050;47.324;18.792;2023-07-20T06:42:09;4.57;;;2.60;;
54143;SDS011;40050;47.324;18.792;2023-07-20T06:44:10;6.76;;;2.90;;
54143;SDS011;40050;47.324;18.792;2023-07-20T06:46:11;4.77;;;2.70;;
54143;SDS011;40050;47.324;18.792;2023-07-20T06:48:12;7.45;;;2.80;;
54143;SDS011;40050;47.324;18.792;2023-07-20T06:50:13;7.75;;;2.80;;
54143;SDS011;40050;47.324;18.792;2023-07-20T06:52:14;6.46;;;2.70;;
54143;SDS011;40050;47.324;18.792;2023-07-20T06:54:15;5.87;;;2.80;;
54143;SDS011;40050;47.324;18.792;2023-07-20T06:56:16;6.37;;;2.70;;
54143;SDS011;40050;47.324;18.792;2023-07-20T06:58:17;4.58;;;2.70;;
54143;SDS011;40050;47.324;18.792;2023-07-20T07:00:18;6.47;;;3.00;;
54143;SDS011;40050;47.324;18.792;2023-07-20T07:02:19;5.77;;;2.90;;
54143;SDS011;40050;47.324;18.792;2023-07-20T07:04:19;6.17;;;2.70;;
54143;SDS011;40050;47.324;18.792;2023-07-20T07:06:20;9.86;;;3.40;;
54143;SDS011;40050;47.324;18.792;2023-07-20T07:08:21;5.68;;;3.30;;
54143;SDS011;40050;47.324;18.792;2023-07-20T07:10:22;5.38;;;2.60;;
54143;SDS011;40050;47.324;18.792;2023-07-20T07:12:23;4.88;;;3.00;;
54143;SDS011;40050;47.324;18.792;2023-07-20T07:14:24;7.97;;;3.00;;
54143;SDS011;40050;47.324;18.792;2023-07-20T07:16:25;9.56;;;2.80;;
54143;SDS011;40050;47.324;18.792;2023-07-20T07:18:26;4.58;;;2.30;;
54143;SDS011;40050;47.324;18.792;2023-07-20T07:20:27;5.38;;;2.30;;
54143;SDS011;40050;47.324;18.792;2023-07-20T07:22:27;4.19;;;2.60;;
54143;SDS011;40050;47.324;18.792;2023-07-20T07:24:28;7.88;;;2.70;;
54143;SDS011;40050;47.324;18.792;2023-07-20T07:26:29;5.98;;;2.60;;
54143;SDS011;40050;47.324;18.792;2023-07-20T07:28:30;4.79;;;2.60;;
54143;SDS011;40050;47.324;18.792;2023-07-20T07:30:31;4.79;;;2.50;;
54143;SDS011;40050;47.324;18.792;2023-07-20T07:32:32;4.19;;;2.40;;
54143;SDS011;40050;47.324;18.792;2023-07-20T07:34:34;4.99;;;2.20;;
54143;SDS011;40050;47.324;18.792;2023-07-20T07:36:35;9.08;;;2.70;;
54143;SDS011;40050;47.324;18.792;2023-07-20T07:38:36;7.18;;;2.40;;
54143;SDS011;40050;47.324;18.792;2023-07-20T07:40:37;8.68;;;2.70;;
54143;SDS011;40050;47.324;18.792;2023-07-20T07:42:38;5.39;;;2.30;;
54143;SDS011;40050;47.324;18.792;2023-07-20T07:44:39;4.49;;;2.50;;
54143;SDS011;40050;47.324;18.792;2023-07-20T07:46:40;5.79;;;2.50;;
54143;SDS011;40050;47.324;18.792;2023-07-20T07:48:41;6.69;;;2.80;;
54143;SDS011;40050;47.324;18.792;2023-07-20T07:50:42;4.69;;;2.30;;
54143;SDS011;40050;47.324;18.792;2023-07-20T07:52:43;6.19;;;2.40;;
54143;SDS011;40050;47.324;18.792;2023-07-20T07:54:44;5.89;;;2.30;;
54143;SDS011;40050;47.324;18.792;2023-07-20T07:56:44;6.49;;;2.10;;
54143;SDS011;40050;47.324;18.792;2023-07-20T07:58:45;5.89;;;2.30;;
54143;SDS011;40050;47.324;18.792;2023-07-20T08:00:47;4.29;;;2.20;;
54143;SDS011;40050;47.324;18.792;2023-07-20T08:02:49;4.89;;;2.40;;
54143;SDS011;40050;47.324;18.792;2023-07-20T08:04:49;5.09;;;2.40;;
54143;SDS011;40050;47.324;18.792;2023-07-20T08:06:49;4.29;;;2.30;;
54143;SDS011;40050;47.324;18.792;2023-07-20T08:08:50;5.89;;;2.30;;
54143;SDS011;40050;47.324;18.792;2023-07-20T08:10:53;4.59;;;2.00;;
54143;SDS011;40050;47.324;18.792;2023-07-20T08:12:54;3.89;;;1.90;;
54143;SDS011;40050;47.324;18.792;2023-07-20T08:14:54;3.79;;;2.20;;
54143;SDS011;40050;47.324;18.792;2023-07-20T08:16:55;4.09;;;2.00;;
54143;SDS011;40050;47.324;18.792;2023-07-20T08:18:56;3.99;;;2.00;;
54143;SDS011;40050;47.324;18.792;2023-07-20T08:20:57;4.49;;;1.90;;
54143;SDS011;40050;47.324;18.792;2023-07-20T08:22:58;8.69;;;2.30;;
54143;SDS011;40050;47.324;18.792;2023-07-20T08:24:59;4.79;;;2.30;;
54143;SDS011;40050;47.324;18.792;2023-07-20T08:27:00;10.58;;;2.70;;
54143;SDS011;40050;47.324;18.792;2023-07-20T08:29:01;5.99;;;1.90;;
54143;SDS011;40050;47.324;18.792;2023-07-20T08:31:14;3.99;;;1.90;;
54143;SDS011;40050;47.324;18.792;2023-07-20T08:33:16;4.19;;;2.20;;
54143;SDS011;40050;47.324;18.792;2023-07-20T08:35:16;5.19;;;2.10;;
54143;SDS011;40050;47.324;18.792;2023-07-20T08:37:17;4.89;;;2.10;;
54143;SDS011;40050;47.324;18.792;2023-07-20T08:39:18;8.59;;;2.00;;
54143;SDS011;40050;47.324;18.792;2023-07-20T08:41:19;3.60;;;2.00;;
54143;SDS011;40050;47.324;18.792;2023-07-20T08:43:20;3.80;;;2.00;;
54143;SDS011;40050;47.324;18.792;2023-07-20T08:45:23;2.20;;;1.80;;
54143;SDS011;40050;47.324;18.792;2023-07-20T08:47:25;2.70;;;1.70;;
54143;SDS011;40050;47.324;18.792;2023-07-20T08:49:27;3.90;;;1.70;;
54143;SDS011;40050;47.324;18.792;2023-07-20T08:51:29;7.19;;;2.00;;
54143;SDS011;40050;47.324;18.792;2023-07-20T08:53:31;5.50;;;2.00;;
54143;SDS011;40050;47.324;18.792;2023-07-20T08:55:32;6.70;;;1.70;;
54143;SDS011;40050;47.324;18.792;2023-07-20T08:57:34;2.70;;;1.80;;
54143;SDS011;40050;47.324;18.792;2023-07-20T08:59:35;3.10;;;1.60;;
54143;SDS011;40050;47.324;18.792;2023-07-20T09:01:36;3.70;;;1.80;;
54143;SDS011;40050;47.324;18.792;2023-07-20T09:03:37;2.70;;;1.70;;
54143;SDS011;40050;47.324;18.792;2023-07-20T09:05:38;4.90;;;2.00;;
54143;SDS011;40050;47.324;18.792;2023-07-20T09:07:40;6.60;;;1.90;;
54143;SDS011;40050;47.324;18.792;2023-07-20T09:09:41;3.70;;;1.80;;
54143;SDS011;40050;47.324;18.792;2023-07-20T09:11:43;3.00;;;1.60;;
54143;SDS011;40050;47.324;18.792;2023-07-20T09:13:47;4.40;;;2.00;;
54143;SDS011;40050;47.324;18.792;2023-07-20T09:15:48;5.90;;;2.00;;
54143;SDS011;40050;47.324;18.792;2023-07-20T09:17:49;4.40;;;2.00;;
54143;SDS011;40050;47.324;18.792;2023-07-20T09:19:50;4.00;;;2.10;;
54143;SDS011;40050;47.324;18.792;2023-07-20T09:21:51;3.80;;;1.90;;
54143;SDS011;40050;47.324;18.792;2023-07-20T09:24:00;5.60;;;1.80;;
54143;SDS011;40050;47.324;18.792;2023-07-20T09:26:10;4.10;;;1.90;;
54143;SDS011;40050;47.324;18.792;2023-07-20T09:28:09;4.10;;;1.70;;
54143;SDS011;40050;47.324;18.792;2023-07-20T09:30:19;4.80;;;1.90;;
54143;SDS011;40050;47.324;18.792;2023-07-20T09:32:40;3.30;;;1.50;;
54143;SDS011;40050;47.324;18.792;2023-07-20T09:34:35;5.20;;;1.90;;
54143;SDS011;40050;47.324;18.792;2023-07-20T09:36:36;2.50;;;1.60;;
54143;SDS011;40050;47.324;18.792;2023-07-20T09:38:37;3.00;;;1.70;;
54143;SDS011;40050;47.324;18.792;2023-07-20T09:40:38;2.80;;;1.70;;
54143;SDS011;40050;47.324;18.792;2023-07-20T09:42:39;4.20;;;1.80;;
54143;SDS011;40050;47.324;18.792;2023-07-20T09:44:44;3.90;;;1.90;;
54143;SDS011;40050;47.324;18.792;2023-07-20T09:46:45;4.00;;;1.90;;
54143;SDS011;40050;47.324;18.792;2023-07-20T09:48:51;7.00;;;1.80;;
54143;SDS011;40050;47.324;18.792;2023-07-20T09:50:50;5.50;;;1.70;;
54143;SDS011;40050;47.324;18.792;2023-07-20T09:52:45;5.70;;;1.70;;
54143;SDS011;40050;47.324;18.792;2023-07-20T09:54:47;4.00;;;1.90;;
54143;SDS011;40050;47.324;18.792;2023-07-20T09:56:51;3.30;;;1.70;;
54143;SDS011;40050;47.324;18.792;2023-07-20T09:58:52;4.40;;;1.90;;
54143;SDS011;40050;47.324;18.792;2023-07-20T10:00:54;3.50;;;2.00;;
54143;SDS011;40050;47.324;18.792;2023-07-20T10:02:57;7.30;;;2.20;;
54143;SDS011;40050;47.324;18.792;2023-07-20T10:05:01;3.10;;;1.70;;
54143;SDS011;40050;47.324;18.792;2023-07-20T10:07:04;4.80;;;1.70;;
54143;SDS011;40050;47.324;18.792;2023-07-20T10:09:06;5.30;;;1.90;;
54143;SDS011;40050;47.324;18.792;2023-07-20T10:11:07;4.60;;;1.90;;
54143;SDS011;40050;47.324;18.792;2023-07-20T10:13:13;7.80;;;2.00;;
54143;SDS011;40050;47.324;18.792;2023-07-20T10:15:19;2.80;;;1.80;;
54143;SDS011;40050;47.324;18.792;2023-07-20T10:17:21;6.50;;;2.10;;
54143;SDS011;40050;47.324;18.792;2023-07-20T10:19:39;3.80;;;2.00;;
54143;SDS011;40050;47.324;18.792;2023-07-20T10:21:39;5.90;;;1.80;;
54143;SDS011;40050;47.324;18.792;2023-07-20T10:23:38;2.50;;;1.80;;
54143;SDS011;40050;47.324;18.792;2023-07-20T10:25:40;4.80;;;1.80;;
54143;SDS011;40050;47.324;18.792;2023-07-20T10:27:41;3.60;;;2.00;;
54143;SDS011;40050;47.324;18.792;2023-07-20T10:29:43;5.20;;;1.80;;
54143;SDS011;40050;47.324;18.792;2023-07-20T10:31:44;6.10;;;1.90;;
54143;SDS011;40050;47.324;18.792;2023-07-20T10:33:45;8.29;;;2.00;;
54143;SDS011;40050;47.324;18.792;2023-07-20T10:35:53;4.10;;;2.00;;
54143;SDS011;40050;47.324;18.792;2023-07-20T10:38:12;4.30;;;1.80;;
54143;SDS011;40050;47.324;18.792;2023-07-20T10:40:29;4.30;;;1.90;;
54143;SDS011;40050;47.324;18.792;2023-07-20T10:42:14;5.40;;;1.70;;
54143;SDS011;40050;47.324;18.792;2023-07-20T10:44:19;4.10;;;1.80;;
54143;SDS011;40050;47.324;18.792;2023-07-20T10:48:26;4.30;;;1.90;;
54143;SDS011;40050;47.324;18.792;2023-07-20T10:50:32;7.19;;;1.70;;
54143;SDS011;40050;47.324;18.792;2023-07-20T10:52:36;3.60;;;1.80;;
54143;SDS011;40050;47.324;18.792;2023-07-20T10:54:52;5.00;;;1.70;;
54143;SDS011;40050;47.324;18.792;2023-07-20T10:56:57;3.80;;;1.70;;
54143;SDS011;40050;47.324;18.792;2023-07-20T10:59:00;3.30;;;1.50;;
54143;SDS011;40050;47.324;18.792;2023-07-20T11:01:02;4.20;;;1.50;;
54143;SDS011;40050;47.324;18.792;2023-07-20T11:02:56;3.60;;;1.70;;
54143;SDS011;40050;47.324;18.792;2023-07-20T11:05:34;3.70;;;1.60;;
54143;SDS011;40050;47.324;18.792;2023-07-20T11:07:17;4.50;;;1.60;;
54143;SDS011;40050;47.324;18.792;2023-07-20T11:09:18;2.90;;;1.20;;
54143;SDS011;40050;47.324;18.792;2023-07-20T11:11:31;4.70;;;1.70;;
54143;SDS011;40050;47.324;18.792;2023-07-20T11:14:02;5.40;;;1.60;;
54143;SDS011;40050;47.324;18.792;2023-07-20T11:18:11;5.00;;;1.70;;
54143;SDS011;40050;47.324;18.792;2023-07-20T11:20:02;4.00;;;1.90;;
54143;SDS011;40050;47.324;18.792;2023-07-20T11:22:07;4.30;;;1.50;;
54143;SDS011;40050;47.324;18.792;2023-07-20T11:24:09;3.50;;;1.50;;
54143;SDS011;40050;47.324;18.792;2023-07-20T11:26:10;4.60;;;1.80;;
54143;SDS011;40050;47.324;18.792;2023-07-20T11:28:16;3.90;;;1.70;;
54143;SDS011;40050;47.324;18.792;2023-07-20T11:30:17;2.20;;;1.40;;
54143;SDS011;40050;47.324;18.792;2023-07-20T11:32:21;2.90;;;1.50;;
54143;SDS011;40050;47.324;18.792;2023-07-20T11:34:20;5.70;;;1.50;;
54143;SDS011;40050;47.324;18.792;2023-07-20T11:36:20;3.20;;;1.50;;
54143;SDS011;40050;47.324;18.792;2023-07-20T11:38:21;4.40;;;1.90;;
54143;SDS011;40050;47.324;18.792;2023-07-20T11:40:26;3.90;;;1.70;;
54143;SDS011;40050;47.324;18.792;2023-07-20T11:42:27;3.00;;;1.60;;
54143;SDS011;40050;47.324;18.792;2023-07-20T11:44:29;4.10;;;1.60;;
54143;SDS011;40050;47.324;18.792;2023-07-20T11:46:30;3.70;;;1.70;;
54143;SDS011;40050;47.324;18.792;2023-07-20T11:48:31;4.20;;;1.60;;
54143;SDS011;40050;47.324;18.792;2023-07-20T11:50:38;3.00;;;1.50;;
54143;SDS011;40050;47.324;18.792;2023-07-20T11:52:37;3.00;;;1.80;;
54143;SDS011;40050;47.324;18.792;2023-07-20T11:54:39;4.30;;;1.60;;
54143;SDS011;40050;47.324;18.792;2023-07-20T11:56:41;3.50;;;1.90;;
54143;SDS011;40050;47.324;18.792;2023-07-20T11:58:43;6.90;;;1.70;;
54143;SDS011;40050;47.324;18.792;2023-07-20T12:00:43;3.10;;;1.60;;
54143;SDS011;40050;47.324;18.792;2023-07-20T12:02:43;4.10;;;1.50;;
54143;SDS011;40050;47.324;18.792;2023-07-20T12:04:44;3.30;;;1.60;;
54143;SDS011;40050;47.324;18.792;2023-07-20T12:06:45;3.80;;;1.40;;
54143;SDS011;40050;47.324;18.792;2023-07-20T12:08:46;5.20;;;1.40;;
54143;SDS011;40050;47.324;18.792;2023-07-20T12:10:48;3.70;;;1.50;;
54143;SDS011;40050;47.324;18.792;2023-07-20T12:12:49;3.70;;;1.60;;